createdAt,value
2022-09-02T00:00:17.352Z,75.2
2022-09-02T00:01:16.855Z,75.3
2022-09-02T00:02:17.752Z,75.0
2022-09-02T00:03:17.751Z,75.0
2022-09-02T00:04:17.327Z,75.2
2022-09-02T00:05:16.750Z,75.2
2022-09-02T00:06:17.163Z,75.4
2022-09-02T00:07:16.594Z,75.3
2022-09-02T00:08:17.024Z,75.3
2022-09-02T00:09:16.448Z,75.3
2022-09-02T00:10:16.903Z,75.4
2022-09-02T00:11:17.556Z,75.4
2022-09-02T00:12:16.879Z,75.3
2022-09-02T00:13:17.436Z,75.2
2022-09-02T00:14:16.914Z,75.2
2022-09-02T00:15:17.416Z,75.4
2022-09-02T00:16:17.010Z,75.5
2022-09-02T00:17:16.472Z,75.4
2022-09-02T00:18:18.424Z,75.5
2022-09-02T00:19:16.579Z,75.4
2022-09-02T00:20:16.993Z,75.8
2022-09-02T00:21:16.420Z,75.5
2022-09-02T00:22:16.883Z,75.7
2022-09-02T00:23:17.407Z,75.7
2022-09-02T00:24:16.872Z,76.0
2022-09-02T00:25:17.361Z,76.0
2022-09-02T00:26:16.822Z,76.1
2022-09-02T00:27:17.270Z,76.3
2022-09-02T00:28:16.731Z,76.3
2022-09-02T00:29:17.194Z,76.2
2022-09-02T00:30:16.704Z,76.3
2022-09-02T00:31:17.305Z,76.4
2022-09-02T00:32:16.709Z,76.6
2022-09-02T00:33:17.235Z,76.9
2022-09-02T00:34:16.694Z,77.0
2022-09-02T00:35:17.162Z,77.0
2022-09-02T00:36:16.577Z,76.8
2022-09-02T00:37:17.043Z,76.5
2022-09-02T00:38:16.452Z,76.0
2022-09-02T00:39:16.884Z,75.8
2022-09-02T00:40:17.522Z,75.5
2022-09-02T00:41:17.089Z,75.5
2022-09-02T00:42:16.697Z,76.1
2022-09-02T00:43:17.256Z,76.5
2022-09-02T00:44:16.764Z,76.6
2022-09-02T00:45:17.241Z,76.7
2022-09-02T00:46:16.805Z,76.8
2022-09-02T00:47:17.308Z,76.8
2022-09-02T00:48:16.748Z,77.2
2022-09-02T00:49:17.998Z,77.4
2022-09-02T00:50:16.938Z,77.4
2022-09-02T00:51:17.774Z,78.1
2022-09-02T00:52:17.426Z,78.1
2022-09-02T00:53:16.931Z,78.0
2022-09-02T00:54:16.445Z,78.0
2022-09-02T00:55:16.894Z,78.1
2022-09-02T00:56:17.355Z,78.2
2022-09-02T00:57:16.824Z,78.2
2022-09-02T00:58:17.282Z,78.2
2022-09-02T00:59:17.303Z,78.0
2022-09-02T01:00:16.772Z,77.9
2022-09-02T01:01:17.659Z,78.0
2022-09-02T01:02:17.078Z,78.0
2022-09-02T01:03:16.610Z,78.0
2022-09-02T01:04:17.069Z,78.2
2022-09-02T01:05:16.482Z,78.2
2022-09-02T01:06:16.923Z,78.3
2022-09-02T01:07:17.360Z,78.5
2022-09-02T01:08:16.803Z,78.3
2022-09-02T01:09:17.275Z,78.3
2022-09-02T01:10:16.734Z,78.6
2022-09-02T01:11:17.214Z,78.6
2022-09-02T01:12:16.658Z,78.8
2022-09-02T01:13:17.176Z,78.8
2022-09-02T01:14:16.663Z,79.0
2022-09-02T01:15:17.132Z,78.9
2022-09-02T01:16:17.061Z,78.8
2022-09-02T01:17:17.057Z,79.0
2022-09-02T01:18:16.495Z,79.0
2022-09-02T01:19:16.927Z,79.0
2022-09-02T01:20:17.379Z,79.4
2022-09-02T01:21:16.836Z,79.6
2022-09-02T01:22:16.966Z,79.9
2022-09-02T01:23:17.380Z,80.0
2022-09-02T01:24:16.851Z,80.4
2022-09-02T01:25:17.295Z,80.6
2022-09-02T01:26:16.761Z,80.5
2022-09-02T01:27:17.203Z,80.7
2022-09-02T01:28:16.665Z,80.5
2022-09-02T01:29:17.122Z,80.3
2022-09-02T01:30:16.579Z,80.4
2022-09-02T01:31:17.160Z,80.4
2022-09-02T01:32:16.633Z,80.8
2022-09-02T01:33:17.119Z,80.8
2022-09-02T01:34:16.596Z,80.8
2022-09-02T01:35:17.007Z,80.8
2022-09-02T01:36:16.433Z,81.1
2022-09-02T01:37:16.850Z,80.8
2022-09-02T01:38:17.262Z,80.8
2022-09-02T01:39:16.730Z,80.7
2022-09-02T01:40:17.312Z,80.9
2022-09-02T01:41:16.797Z,81.2
2022-09-02T01:42:17.355Z,81.1
2022-09-02T01:43:16.830Z,80.8
2022-09-02T01:44:17.297Z,80.8
2022-09-02T01:45:16.730Z,80.8
2022-09-02T01:46:17.259Z,81.0
2022-09-02T01:47:16.691Z,81.0
2022-09-02T01:48:22.035Z,80.9
2022-09-02T01:49:16.510Z,81.0
2022-09-02T01:50:16.946Z,81.1
2022-09-02T01:51:17.364Z,81.2
2022-09-02T01:52:17.029Z,81.2
2022-09-02T01:53:16.491Z,81.2
2022-09-02T01:54:16.930Z,81.2
2022-09-02T01:55:17.385Z,81.0
2022-09-02T01:56:16.841Z,81.6
2022-09-02T01:57:17.294Z,81.7
2022-09-02T01:58:16.781Z,81.8
2022-09-02T01:59:17.238Z,81.9
2022-09-02T02:00:16.705Z,81.8
2022-09-02T02:01:17.535Z,81.9
2022-09-02T02:02:17.366Z,81.9
2022-09-02T02:03:16.813Z,81.8
2022-09-02T02:04:17.218Z,81.9
2022-09-02T02:05:16.635Z,82.0
2022-09-02T02:06:17.064Z,82.2
2022-09-02T02:07:16.504Z,82.1
2022-09-02T02:08:16.945Z,82.2
2022-09-02T02:09:17.391Z,82.2
2022-09-02T02:10:16.861Z,82.2
2022-09-02T02:11:17.343Z,82.0
2022-09-02T02:12:16.750Z,82.1
2022-09-02T02:13:17.245Z,82.2
2022-09-02T02:14:16.762Z,82.2
2022-09-02T02:15:17.227Z,82.2
2022-09-02T02:16:16.836Z,82.3
2022-09-02T02:17:17.299Z,82.3
2022-09-02T02:18:16.712Z,82.3
2022-09-02T02:19:17.252Z,82.2
2022-09-02T02:20:16.711Z,82.4
2022-09-02T02:21:17.126Z,82.2
2022-09-02T02:22:16.489Z,82.0
2022-09-02T02:23:16.949Z,82.0
2022-09-02T02:24:17.400Z,82.5
2022-09-02T02:25:16.878Z,82.8
2022-09-02T02:26:17.335Z,83.2
2022-09-02T02:27:16.703Z,83.2
2022-09-02T02:28:17.183Z,83.5
2022-09-02T02:29:16.655Z,83.2
2022-09-02T02:30:17.081Z,83.1
2022-09-02T02:31:16.686Z,83.2
2022-09-02T02:32:16.472Z,82.8
2022-09-02T02:33:16.875Z,82.3
2022-09-02T02:34:17.298Z,82.5
2022-09-02T02:35:16.746Z,82.3
2022-09-02T02:36:17.168Z,82.2
2022-09-02T02:37:16.615Z,82.2
2022-09-02T02:38:17.069Z,82.5
2022-09-02T02:39:16.536Z,82.4
2022-09-02T02:40:17.386Z,82.3
2022-09-02T02:41:16.877Z,82.2
2022-09-02T02:42:17.223Z,82.3
2022-09-02T02:43:16.709Z,82.5
2022-09-02T02:44:17.196Z,82.5
2022-09-02T02:45:16.632Z,82.9
2022-09-02T02:46:17.258Z,83.0
2022-09-02T02:47:16.729Z,83.2
2022-09-02T02:48:17.178Z,83.0
2022-09-02T02:49:16.586Z,83.0
2022-09-02T02:50:17.021Z,83.1
2022-09-02T02:51:16.450Z,83.2
2022-09-02T02:52:17.015Z,83.5
2022-09-02T02:53:16.456Z,83.5
2022-09-02T02:54:16.930Z,83.5
2022-09-02T02:55:17.416Z,84.0
2022-09-02T02:56:16.870Z,84.1
2022-09-02T02:57:17.320Z,84.4
2022-09-02T02:58:17.016Z,84.4
2022-09-02T02:59:17.320Z,84.4
2022-09-02T03:00:16.760Z,84.5
2022-09-02T03:01:17.255Z,84.4
2022-09-02T03:02:17.213Z,84.4
2022-09-02T03:03:16.721Z,84.4
2022-09-02T03:04:17.147Z,84.6
2022-09-02T03:05:16.563Z,84.7
2022-09-02T03:06:23.945Z,84.8
2022-09-02T03:07:16.963Z,84.7
2022-09-02T03:08:17.413Z,84.9
2022-09-02T03:09:16.854Z,84.7
2022-09-02T03:10:17.310Z,84.7
2022-09-02T03:11:16.787Z,84.8
2022-09-02T03:12:17.740Z,84.8
2022-09-02T03:13:17.370Z,84.8
2022-09-02T03:14:16.804Z,84.9
2022-09-02T03:15:17.246Z,84.9
2022-09-02T03:16:16.781Z,85.0
2022-09-02T03:17:17.243Z,85.1
2022-09-02T03:18:16.668Z,85.1
2022-09-02T03:19:17.089Z,85.1
2022-09-02T03:20:16.506Z,85.1
2022-09-02T03:21:16.956Z,85.2
2022-09-02T03:22:16.595Z,85.2
2022-09-02T03:23:17.036Z,85.3
2022-09-02T03:24:16.501Z,85.4
2022-09-02T03:25:18.093Z,85.5
2022-09-02T03:26:19.266Z,85.7
2022-09-02T03:27:16.729Z,85.7
2022-09-02T03:28:17.182Z,85.7
2022-09-02T03:29:16.620Z,85.8
2022-09-02T03:30:17.042Z,86.0
2022-09-02T03:31:16.560Z,86.2
2022-09-02T03:32:16.459Z,86.2
2022-09-02T03:33:17.828Z,86.3
2022-09-02T03:34:17.146Z,86.5
2022-09-02T03:35:16.592Z,86.5
2022-09-02T03:36:17.090Z,86.5
2022-09-02T03:37:16.563Z,86.7
2022-09-02T03:38:17.024Z,87.0
2022-09-02T03:39:16.494Z,87.2
2022-09-02T03:40:17.037Z,87.6
2022-09-02T03:41:16.492Z,87.9
2022-09-02T03:42:20.041Z,88.1
2022-09-02T03:43:16.504Z,88.2
2022-09-02T03:44:16.926Z,88.3
2022-09-02T03:45:17.359Z,88.2
2022-09-02T03:46:16.959Z,88.4
2022-09-02T03:47:20.815Z,88.5
2022-09-02T03:48:16.847Z,88.5
2022-09-02T03:49:17.323Z,88.5
2022-09-02T03:50:16.744Z,88.6
2022-09-02T03:51:17.170Z,88.6
2022-09-02T03:52:16.819Z,88.6
2022-09-02T03:53:20.610Z,88.8
2022-09-02T03:54:17.098Z,88.7
2022-09-02T03:55:16.550Z,88.6
2022-09-02T03:56:17.569Z,88.7
2022-09-02T03:57:17.253Z,88.7
2022-09-02T03:58:16.671Z,88.7
2022-09-02T03:59:17.111Z,88.7
2022-09-02T04:00:16.700Z,88.9
2022-09-02T04:01:17.343Z,89.0
2022-09-02T04:02:16.978Z,89.0
2022-09-02T04:03:16.601Z,89.0
2022-09-02T04:04:22.976Z,89.0
2022-09-02T04:05:16.533Z,89.1
2022-09-02T04:06:16.993Z,89.2
2022-09-02T04:07:16.466Z,89.4
2022-09-02T04:08:16.909Z,89.3
2022-09-02T04:09:17.545Z,89.4
2022-09-02T04:10:17.033Z,89.5
2022-09-02T04:11:16.490Z,89.5
2022-09-02T04:12:17.273Z,89.5
2022-09-02T04:13:16.714Z,89.5
2022-09-02T04:14:17.133Z,89.6
2022-09-02T04:15:16.598Z,89.6
2022-09-02T04:16:17.142Z,89.7
2022-09-02T04:17:16.575Z,89.5
2022-09-02T04:18:17.030Z,89.5
2022-09-02T04:19:16.537Z,89.3
2022-09-02T04:20:17.057Z,89.2
2022-09-02T04:21:16.508Z,89.1
2022-09-02T04:22:16.775Z,89.1
2022-09-02T04:23:17.221Z,89.3
2022-09-02T04:24:16.676Z,89.5
2022-09-02T04:25:17.146Z,89.8
2022-09-02T04:26:16.597Z,89.8
2022-09-02T04:27:17.017Z,90.0
2022-09-02T04:28:16.442Z,89.9
2022-09-02T04:29:16.898Z,89.9
2022-09-02T04:30:17.390Z,89.8
2022-09-02T04:31:16.959Z,89.8
2022-09-02T04:32:16.574Z,90.0
2022-09-02T04:33:17.050Z,90.1
2022-09-02T04:34:16.557Z,90.0
2022-09-02T04:35:17.008Z,90.1
2022-09-02T04:36:16.466Z,90.0
2022-09-02T04:37:16.964Z,90.0
2022-09-02T04:38:17.450Z,90.0
2022-09-02T04:39:16.891Z,90.0
2022-09-02T04:40:17.409Z,90.0
2022-09-02T04:41:16.829Z,90.2
2022-09-02T04:42:17.172Z,90.0
2022-09-02T04:43:16.586Z,90.1
2022-09-02T04:44:17.014Z,90.2
2022-09-02T04:45:16.454Z,90.1
2022-09-02T04:46:17.616Z,90.0
2022-09-02T04:47:17.240Z,90.2
2022-09-02T04:48:17.119Z,90.2
2022-09-02T04:49:16.564Z,90.2
2022-09-02T04:50:17.057Z,90.2
2022-09-02T04:51:16.529Z,90.3
2022-09-02T04:52:16.902Z,90.3
2022-09-02T04:53:17.473Z,90.2
2022-09-02T04:54:16.961Z,90.5
2022-09-02T04:55:17.404Z,90.5
2022-09-02T04:56:16.837Z,90.5
2022-09-02T04:57:17.267Z,90.5
2022-09-02T04:58:16.692Z,90.4
2022-09-02T04:59:17.121Z,90.3
2022-09-02T05:00:16.547Z,90.2
2022-09-02T05:01:17.110Z,90.3
2022-09-02T05:02:17.098Z,90.2
2022-09-02T05:03:16.627Z,90.2
2022-09-02T05:04:17.085Z,90.2
2022-09-02T05:05:16.535Z,90.1
2022-09-02T05:06:17.006Z,90.1
2022-09-02T05:07:16.490Z,90.0
2022-09-02T05:08:16.953Z,90.0
2022-09-02T05:09:17.414Z,90.0
2022-09-02T05:10:16.870Z,89.8
2022-09-02T05:11:17.331Z,89.7
2022-09-02T05:12:16.958Z,89.7
2022-09-02T05:13:18.840Z,89.7
2022-09-02T05:14:17.288Z,89.7
2022-09-02T05:15:16.705Z,89.6
2022-09-02T05:16:17.243Z,89.6
2022-09-02T05:17:16.681Z,89.5
2022-09-02T05:18:17.137Z,89.3
2022-09-02T05:19:16.615Z,89.2
2022-09-02T05:20:17.074Z,89.2
2022-09-02T05:21:16.541Z,88.8
2022-09-02T05:22:16.953Z,88.7
2022-09-02T05:23:17.485Z,88.7
2022-09-02T05:24:17.022Z,88.5
2022-09-02T05:25:16.515Z,88.6
2022-09-02T05:26:16.954Z,88.3
2022-09-02T05:27:17.396Z,88.2
2022-09-02T05:28:16.845Z,88.1
2022-09-02T05:29:17.301Z,88.0
2022-09-02T05:30:16.714Z,87.9
2022-09-02T05:31:17.260Z,87.8
2022-09-02T05:32:16.710Z,87.8
2022-09-02T05:33:17.510Z,87.8
2022-09-02T05:34:17.009Z,87.8
2022-09-02T05:35:16.486Z,87.7
2022-09-02T05:36:16.964Z,87.3
2022-09-02T05:37:17.432Z,87.3
2022-09-02T05:38:16.875Z,87.0
2022-09-02T05:39:17.349Z,86.8
2022-09-02T05:40:22.842Z,86.8
2022-09-02T05:41:17.343Z,86.7
2022-09-02T05:42:16.529Z,86.4
2022-09-02T05:43:16.992Z,86.3
2022-09-02T05:44:16.401Z,85.7
2022-09-02T05:45:16.937Z,85.4
2022-09-02T05:46:17.824Z,85.2
2022-09-02T05:47:17.421Z,85.2
2022-09-02T05:48:16.914Z,84.9
2022-09-02T05:49:17.402Z,84.8
2022-09-02T05:50:17.263Z,84.8
2022-09-02T05:51:16.719Z,84.8
2022-09-02T05:52:16.833Z,84.8
2022-09-02T05:53:17.291Z,84.8
2022-09-02T05:54:16.775Z,84.2
2022-09-02T05:55:17.201Z,83.8
2022-09-02T05:56:16.610Z,83.8
2022-09-02T05:57:17.050Z,83.3
2022-09-02T05:58:16.493Z,83.1
2022-09-02T05:59:16.935Z,82.9
2022-09-02T06:00:18.458Z,82.8
2022-09-02T06:01:16.909Z,82.6
2022-09-02T06:02:17.570Z,82.8
2022-09-02T06:03:17.230Z,82.8
2022-09-02T06:04:16.730Z,82.8
2022-09-02T06:05:17.243Z,82.7
2022-09-02T06:06:16.733Z,82.5
2022-09-02T06:07:17.199Z,81.8
2022-09-02T06:08:16.619Z,81.8
2022-09-02T06:09:17.045Z,81.4
2022-09-02T06:10:16.476Z,81.3
2022-09-02T06:11:16.892Z,81.3
2022-09-02T06:12:16.420Z,81.1
2022-09-02T06:13:16.832Z,80.7
2022-09-02T06:14:17.303Z,80.5
2022-09-02T06:15:16.745Z,80.4
2022-09-02T06:16:19.500Z,80.2
2022-09-02T06:17:17.022Z,80.3
2022-09-02T06:18:18.706Z,80.2
2022-09-02T06:19:20.684Z,80.2
2022-09-02T06:20:17.214Z,79.8
2022-09-02T06:21:16.659Z,79.8
2022-09-02T06:22:16.679Z,79.8
2022-09-02T06:23:17.103Z,79.7
2022-09-02T06:24:16.529Z,79.2
2022-09-02T06:25:16.946Z,78.4
2022-09-02T06:26:17.551Z,78.8
2022-09-02T06:27:16.992Z,78.8
2022-09-02T06:28:16.471Z,78.8
2022-09-02T06:29:16.921Z,78.7
2022-09-02T06:30:17.370Z,78.2
2022-09-02T06:31:16.973Z,78.1
2022-09-02T06:32:16.573Z,77.5
2022-09-02T06:33:17.159Z,77.6
2022-09-02T06:34:16.684Z,76.6
2022-09-02T06:35:17.143Z,77.1
2022-09-02T06:36:16.604Z,76.7
2022-09-02T06:37:17.023Z,75.7
2022-09-02T06:38:16.453Z,75.8
2022-09-02T06:39:16.883Z,75.7
2022-09-02T06:40:17.427Z,75.1
2022-09-02T06:41:16.850Z,74.7
2022-09-02T06:42:16.461Z,74.8
2022-09-02T06:43:16.887Z,74.4
2022-09-02T06:44:17.314Z,73.4
2022-09-02T06:45:16.745Z,73.0
2022-09-02T06:46:17.449Z,72.7
2022-09-02T06:47:16.976Z,72.6
2022-09-02T06:48:16.452Z,73.0
2022-09-02T06:49:16.978Z,72.8
2022-09-02T06:50:16.460Z,72.7
2022-09-02T06:51:16.908Z,72.8
2022-09-02T06:52:16.499Z,72.1
2022-09-02T06:53:16.936Z,71.8
2022-09-02T06:54:17.358Z,71.5
2022-09-02T06:55:16.805Z,71.2
2022-09-02T06:56:17.255Z,70.8
2022-09-02T06:57:16.714Z,70.8
2022-09-02T06:58:17.170Z,70.5
2022-09-02T06:59:16.643Z,70.4
2022-09-02T07:00:17.120Z,71.2
2022-09-02T07:01:16.788Z,71.9
2022-09-02T07:03:16.675Z,72.0
2022-09-02T07:04:17.146Z,71.5
2022-09-02T07:05:16.588Z,70.8
2022-09-02T07:06:17.051Z,70.6
2022-09-02T07:07:16.477Z,70.1
2022-09-02T07:08:16.898Z,70.2
2022-09-02T07:09:17.358Z,70.9
2022-09-02T07:10:16.793Z,70.7
2022-09-02T07:11:17.218Z,70.4
2022-09-02T07:12:17.249Z,70.4
2022-09-02T07:13:16.674Z,70.3
2022-09-02T07:14:17.110Z,69.9
2022-09-02T07:15:16.552Z,69.2
2022-09-02T07:16:27.351Z,69.3
2022-09-02T07:17:17.080Z,69.0
2022-09-02T07:18:16.587Z,68.9
2022-09-02T07:19:20.984Z,67.3
2022-09-02T07:20:16.499Z,66.8
2022-09-02T07:21:16.921Z,66.8
2022-09-02T07:22:19.082Z,67.1
2022-09-02T07:23:16.514Z,67.1
2022-09-02T07:24:16.950Z,67.4
2022-09-02T07:25:17.372Z,66.4
2022-09-02T07:26:16.791Z,66.7
2022-09-02T07:27:17.250Z,66.7
2022-09-02T07:28:16.672Z,67.0
2022-09-02T07:29:17.115Z,66.5
2022-09-02T07:30:16.566Z,65.8
2022-09-02T07:31:17.100Z,66.4
2022-09-02T07:32:16.508Z,66.2
2022-09-02T07:33:16.965Z,65.7
2022-09-02T07:34:16.468Z,65.0
2022-09-02T07:35:16.969Z,64.5
2022-09-02T07:36:17.459Z,65.7
2022-09-02T07:37:16.889Z,65.4
2022-09-02T07:38:17.308Z,66.3
2022-09-02T07:39:16.726Z,65.8
2022-09-02T07:40:17.306Z,65.1
2022-09-02T07:41:16.624Z,64.2
2022-09-02T07:42:16.945Z,63.5
2022-09-02T07:43:16.437Z,63.3
2022-09-02T07:44:16.858Z,63.3
2022-09-02T07:45:17.347Z,63.4
2022-09-02T07:46:16.997Z,62.6
2022-09-02T07:47:16.549Z,62.4
2022-09-02T07:48:17.048Z,62.5
2022-09-02T07:49:23.461Z,61.6
2022-09-02T07:50:21.205Z,61.2
2022-09-02T07:51:16.932Z,61.5
2022-09-02T07:52:17.266Z,60.9
2022-09-02T07:53:16.708Z,60.8
2022-09-02T07:54:17.132Z,61.0
2022-09-02T07:55:16.545Z,61.0
2022-09-02T07:56:16.996Z,61.1
2022-09-02T07:57:16.424Z,60.5
2022-09-02T07:58:16.854Z,61.0
2022-09-02T07:59:17.270Z,60.9
2022-09-02T08:00:16.717Z,61.0
2022-09-02T08:01:23.592Z,59.9
2022-09-02T08:02:16.758Z,60.1
2022-09-02T08:03:17.237Z,60.7
2022-09-02T08:04:16.721Z,60.6
2022-09-02T08:05:17.189Z,59.9
2022-09-02T08:06:16.703Z,60.2
2022-09-02T08:07:17.284Z,59.2
2022-09-02T08:08:16.712Z,59.2
2022-09-02T08:09:17.134Z,59.2
2022-09-02T08:10:16.602Z,59.4
2022-09-02T08:11:17.012Z,59.0
2022-09-02T08:12:22.114Z,59.0
2022-09-02T08:13:16.891Z,59.0
2022-09-02T08:14:17.397Z,59.0
2022-09-02T08:15:17.417Z,59.0
2022-09-02T08:16:17.049Z,59.2
2022-09-02T08:17:17.427Z,58.2
2022-09-02T08:18:22.797Z,58.6
2022-09-02T08:19:17.310Z,58.5
2022-09-02T08:20:16.779Z,59.0
2022-09-02T08:21:17.198Z,58.4
2022-09-02T08:22:16.887Z,59.0
2022-09-02T08:23:36.982Z,58.3
2022-09-02T08:24:16.901Z,57.1
2022-09-02T08:25:17.358Z,57.0
2022-09-02T08:26:16.778Z,56.0
2022-09-02T08:27:17.238Z,56.1
2022-09-02T08:28:16.658Z,56.1
2022-09-02T08:29:17.121Z,56.7
2022-09-02T08:30:16.580Z,56.8
2022-09-02T08:31:17.175Z,57.1
2022-09-02T08:32:16.851Z,57.1
2022-09-02T08:33:17.510Z,56.3
2022-09-02T08:34:16.991Z,57.0
2022-09-02T08:35:16.442Z,57.7
2022-09-02T08:36:16.863Z,58.7
2022-09-02T08:37:17.284Z,57.9
2022-09-02T08:38:16.720Z,57.8
2022-09-02T08:39:17.263Z,56.1
2022-09-02T08:40:16.784Z,55.5
2022-09-02T08:41:17.314Z,56.0
2022-09-02T08:42:16.587Z,55.8
2022-09-02T08:43:17.044Z,55.5
2022-09-02T08:44:16.543Z,55.7
2022-09-02T08:45:17.019Z,55.5
2022-09-02T08:46:16.785Z,55.8
2022-09-02T08:47:17.248Z,56.2
2022-09-02T08:48:16.706Z,56.1
2022-09-02T08:49:17.166Z,55.7
2022-09-02T08:50:16.598Z,56.0
2022-09-02T08:51:17.044Z,56.5
2022-09-02T08:52:18.021Z,56.1
2022-09-02T08:53:16.471Z,56.0
2022-09-02T08:54:16.927Z,56.5
2022-09-02T08:55:17.365Z,56.0
2022-09-02T08:56:16.795Z,55.2
2022-09-02T08:57:17.247Z,55.2
2022-09-02T08:58:16.723Z,55.5
2022-09-02T08:59:17.190Z,55.7
2022-09-02T09:00:16.679Z,55.8
2022-09-02T09:01:17.278Z,55.4
2022-09-02T09:02:18.233Z,54.5
2022-09-02T09:03:16.732Z,54.4
2022-09-02T09:04:17.181Z,54.0
2022-09-02T09:05:16.614Z,54.4
2022-09-02T09:06:17.039Z,54.5
2022-09-02T09:07:16.451Z,53.8
2022-09-02T09:08:22.063Z,53.1
2022-09-02T09:09:16.547Z,53.3
2022-09-02T09:10:16.969Z,52.5
2022-09-02T09:11:17.414Z,51.5
2022-09-02T09:12:17.159Z,51.8
2022-09-02T09:13:16.612Z,52.1
2022-09-02T09:14:17.065Z,52.2
2022-09-02T09:15:17.728Z,51.8
2022-09-02T09:16:17.416Z,51.9
2022-09-02T09:17:16.875Z,51.6
2022-09-02T09:18:17.320Z,51.6
2022-09-02T09:19:16.780Z,52.6
2022-09-02T09:20:17.263Z,52.0
2022-09-02T09:21:16.795Z,51.4
2022-09-02T09:22:17.081Z,51.5
2022-09-02T09:23:22.164Z,50.8
2022-09-02T09:24:16.651Z,50.0
2022-09-02T09:25:17.086Z,50.4
2022-09-02T09:26:16.520Z,50.2
2022-09-02T09:27:16.971Z,50.5
2022-09-02T09:28:17.448Z,50.2
2022-09-02T09:29:17.194Z,49.6
2022-09-02T09:30:16.955Z,49.4
2022-09-02T09:31:17.604Z,49.0
2022-09-02T09:32:16.945Z,49.0
2022-09-02T09:33:17.397Z,50.4
2022-09-02T09:34:16.850Z,49.5
2022-09-02T09:35:17.286Z,49.5
2022-09-02T09:36:16.755Z,49.0
2022-09-02T09:37:17.204Z,49.6
2022-09-02T09:38:16.628Z,50.3
2022-09-02T09:39:17.079Z,49.7
2022-09-02T09:40:16.649Z,49.9
2022-09-02T09:41:17.106Z,49.5
2022-09-02T09:42:16.564Z,49.8
2022-09-02T09:43:17.204Z,49.8
2022-09-02T09:44:16.726Z,50.0
2022-09-02T09:45:17.219Z,49.6
2022-09-02T09:46:16.813Z,49.5
2022-09-02T09:47:18.353Z,48.4
2022-09-02T09:48:16.828Z,49.1
2022-09-02T09:49:17.296Z,49.3
2022-09-02T09:50:17.457Z,49.2
2022-09-02T09:51:16.969Z,48.1
2022-09-02T09:52:16.714Z,46.2
2022-09-02T09:53:17.252Z,46.6
2022-09-02T09:54:16.761Z,46.8
2022-09-02T09:55:25.491Z,46.6
2022-09-02T09:56:17.023Z,46.9
2022-09-02T09:57:16.474Z,47.4
2022-09-02T09:58:16.930Z,47.7
2022-09-02T09:59:17.434Z,47.2
2022-09-02T10:00:17.038Z,48.5
2022-09-02T10:01:16.701Z,48.0
2022-09-02T10:02:16.809Z,48.0
2022-09-02T10:03:17.310Z,48.2
2022-09-02T10:04:42.665Z,48.5
2022-09-02T10:05:17.247Z,48.0
2022-09-02T10:06:16.675Z,47.2
2022-09-02T10:07:17.120Z,47.2
2022-09-02T10:08:16.558Z,47.0
2022-09-02T10:09:16.999Z,47.1
2022-09-02T10:10:16.590Z,48.2
2022-09-02T10:11:17.055Z,48.5
2022-09-02T10:12:17.349Z,48.8
2022-09-02T10:13:16.787Z,48.4
2022-09-02T10:14:17.259Z,48.1
2022-09-02T10:15:16.725Z,47.0
2022-09-02T10:16:17.314Z,47.0
2022-09-02T10:17:16.781Z,47.0
2022-09-02T10:18:17.240Z,46.5
2022-09-02T10:19:16.659Z,46.0
2022-09-02T10:20:17.075Z,45.3
2022-09-02T10:21:16.730Z,45.2
2022-09-02T10:22:17.412Z,45.1
2022-09-02T10:23:16.853Z,44.4
2022-09-02T10:24:17.310Z,45.5
2022-09-02T10:25:16.749Z,46.0
2022-09-02T10:26:17.282Z,46.5
2022-09-02T10:27:16.755Z,47.1
2022-09-02T10:28:17.209Z,46.7
2022-09-02T10:29:16.679Z,45.0
2022-09-02T10:30:17.118Z,45.8
2022-09-02T10:31:16.678Z,46.8
2022-09-02T10:32:17.476Z,46.7
2022-09-02T10:33:16.923Z,46.9
2022-09-02T10:34:17.356Z,46.6
2022-09-02T10:35:16.795Z,46.4
2022-09-02T10:36:25.221Z,45.5
2022-09-02T10:37:16.826Z,46.0
2022-09-02T10:38:17.241Z,45.6
2022-09-02T10:39:16.743Z,44.5
2022-09-02T10:40:17.637Z,44.5
2022-09-02T10:41:17.193Z,43.6
2022-09-02T10:42:17.189Z,45.1
2022-09-02T10:43:16.636Z,45.5
2022-09-02T10:44:17.074Z,46.5
2022-09-02T10:45:16.538Z,46.5
2022-09-02T10:46:17.062Z,46.6
2022-09-02T10:47:16.550Z,47.6
2022-09-02T10:48:16.991Z,48.3
2022-09-02T10:49:16.445Z,47.8
2022-09-02T10:50:16.860Z,47.5
2022-09-02T10:51:17.292Z,47.9
2022-09-02T10:53:16.723Z,49.0
2022-09-02T10:54:17.199Z,49.2
2022-09-02T10:55:16.612Z,49.4
2022-09-02T10:56:17.312Z,50.0
2022-09-02T10:57:16.964Z,50.0
2022-09-02T10:58:17.448Z,49.5
2022-09-02T10:59:16.901Z,49.4
2022-09-02T11:00:17.373Z,49.1
2022-09-02T11:01:16.990Z,48.8
2022-09-02T11:02:17.391Z,48.5
2022-09-02T11:03:16.990Z,48.4
2022-09-02T11:04:25.190Z,48.0
2022-09-02T11:05:16.826Z,48.5
2022-09-02T11:06:17.288Z,49.2
2022-09-02T11:07:16.700Z,49.3
2022-09-02T11:08:17.130Z,49.1
2022-09-02T11:09:16.672Z,49.4
2022-09-02T11:10:17.144Z,49.5
2022-09-02T11:11:16.640Z,49.1
2022-09-02T11:12:16.538Z,49.0
2022-09-02T11:13:17.003Z,49.6
2022-09-02T11:14:21.141Z,50.3
2022-09-02T11:15:16.622Z,50.5
2022-09-02T11:16:17.412Z,50.3
2022-09-02T11:17:18.579Z,50.8
2022-09-02T11:18:17.022Z,51.4
2022-09-02T11:19:16.467Z,51.8
2022-09-02T11:20:17.195Z,52.1
2022-09-02T11:21:16.610Z,52.0
2022-09-02T11:22:16.940Z,52.5
2022-09-02T11:23:17.385Z,52.7
2022-09-02T11:24:17.109Z,52.5
2022-09-02T11:25:16.723Z,51.4
2022-09-02T11:26:17.224Z,50.7
2022-09-02T11:27:41.435Z,51.0
2022-09-02T11:28:17.398Z,49.6
2022-09-02T11:29:16.893Z,49.5
2022-09-02T11:30:17.349Z,49.8
2022-09-02T11:31:19.179Z,49.3
2022-09-02T11:32:16.658Z,49.9
2022-09-02T11:33:17.510Z,49.6
2022-09-02T11:34:16.937Z,48.9
2022-09-02T11:35:18.308Z,48.2
2022-09-02T11:36:18.122Z,48.0
2022-09-02T11:37:19.894Z,48.1
2022-09-02T11:38:17.314Z,48.4
2022-09-02T11:39:36.369Z,48.8
2022-09-02T11:40:33.593Z,49.2
2022-09-02T11:41:33.902Z,49.4
2022-09-02T11:42:17.081Z,49.3
2022-09-02T11:43:16.601Z,49.0
2022-09-02T11:44:16.529Z,49.6
2022-09-02T11:45:17.068Z,49.9
2022-09-02T11:46:16.549Z,50.2
2022-09-02T11:47:16.982Z,49.9
2022-09-02T11:48:17.059Z,50.5
2022-09-02T11:49:16.500Z,50.5
2022-09-02T11:50:16.950Z,50.5
2022-09-02T11:51:17.508Z,50.5
2022-09-02T11:52:17.344Z,50.5
2022-09-02T11:53:16.912Z,50.9
2022-09-02T11:54:17.352Z,50.7
2022-09-02T11:55:17.240Z,50.7
2022-09-02T11:56:16.727Z,50.6
2022-09-02T11:57:17.235Z,50.5
2022-09-02T11:58:16.687Z,50.5
2022-09-02T11:59:17.170Z,49.9
2022-09-02T12:00:16.668Z,49.9
2022-09-02T12:01:18.436Z,49.8
2022-09-02T12:02:16.826Z,50.5
2022-09-02T12:03:41.109Z,50.0
2022-09-02T12:04:59.663Z,50.0
2022-09-02T12:05:17.411Z,50.2
2022-09-02T12:06:17.188Z,50.4
2022-09-02T12:07:16.749Z,50.6
2022-09-02T12:08:17.178Z,50.2
2022-09-02T12:09:16.633Z,50.1
2022-09-02T12:10:17.327Z,50.1
2022-09-02T12:11:16.788Z,50.3
2022-09-02T12:12:17.258Z,49.9
2022-09-02T12:13:16.731Z,50.1
2022-09-02T12:14:17.196Z,50.0
2022-09-02T12:15:17.388Z,50.1
2022-09-02T12:16:17.099Z,49.9
2022-09-02T12:17:19.451Z,50.1
2022-09-02T12:18:17.007Z,49.8
2022-09-02T12:19:18.668Z,49.4
2022-09-02T12:20:17.081Z,49.9
2022-09-02T12:21:23.602Z,49.0
2022-09-02T12:22:17.345Z,49.5
2022-09-02T12:23:16.829Z,50.0
2022-09-02T12:24:17.297Z,50.2
2022-09-02T12:25:16.764Z,50.1
2022-09-02T12:26:17.235Z,49.5
2022-09-02T12:27:16.683Z,49.4
2022-09-02T12:28:24.020Z,49.6
2022-09-02T12:29:17.042Z,49.6
2022-09-02T12:30:16.725Z,49.4
2022-09-02T12:31:17.315Z,49.3
2022-09-02T12:32:16.657Z,49.4
2022-09-02T12:33:17.083Z,49.3
2022-09-02T12:34:16.520Z,48.8
2022-09-02T12:35:17.629Z,49.0
2022-09-02T12:36:17.049Z,49.0
2022-09-02T12:37:16.485Z,49.7
2022-09-02T12:38:16.939Z,49.3
2022-09-02T12:39:17.615Z,49.3
2022-09-02T12:40:17.310Z,49.2
2022-09-02T12:41:17.127Z,49.1
2022-09-02T12:42:16.875Z,49.0
2022-09-02T12:43:17.382Z,48.5
2022-09-02T12:44:16.844Z,48.6
2022-09-02T12:45:17.295Z,49.0
2022-09-02T12:46:16.793Z,49.4
2022-09-02T12:47:17.246Z,49.5
2022-09-02T12:48:16.751Z,49.4
2022-09-02T12:49:17.204Z,49.0
2022-09-02T12:50:19.929Z,49.0
2022-09-02T12:51:16.492Z,49.0
2022-09-02T12:52:16.616Z,48.6
2022-09-02T12:53:21.171Z,48.7
2022-09-02T12:54:16.642Z,48.9
2022-09-02T12:55:17.086Z,48.5
2022-09-02T12:56:16.552Z,48.5
2022-09-02T12:57:17.028Z,49.0
2022-09-02T12:58:16.482Z,49.0
2022-09-02T12:59:16.949Z,49.2
2022-09-02T13:00:17.416Z,50.1
2022-09-02T13:01:16.958Z,49.7
2022-09-02T13:02:16.478Z,49.5
2022-09-02T13:03:17.064Z,49.5
2022-09-02T13:04:16.535Z,49.2
2022-09-02T13:05:16.949Z,49.3
2022-09-02T13:06:17.422Z,49.2
2022-09-02T13:07:16.870Z,49.6
2022-09-02T13:08:17.318Z,49.5
2022-09-02T13:09:16.856Z,50.0
2022-09-02T13:10:17.342Z,49.9
2022-09-02T13:11:16.829Z,49.8
2022-09-02T13:12:17.384Z,49.6
2022-09-02T13:13:16.851Z,49.8
2022-09-02T13:14:17.280Z,49.4
2022-09-02T13:15:23.222Z,49.4
2022-09-02T13:16:19.400Z,49.3
2022-09-02T13:17:36.302Z,49.0
2022-09-02T13:18:16.904Z,48.8
2022-09-02T13:19:17.354Z,48.8
2022-09-02T13:20:16.766Z,48.8